createdAt,value
2022-09-28T00:00:27.959Z,85.15
2022-09-28T00:03:18.704Z,84.68
2022-09-28T00:06:10.974Z,84.31
2022-09-28T00:09:03.214Z,84.08
2022-09-28T00:11:55.017Z,83.08
2022-09-28T00:14:46.034Z,82.49
2022-09-28T00:17:37.807Z,80.99
2022-09-28T00:20:31.230Z,80.43
2022-09-28T00:23:21.771Z,80.24
2022-09-28T00:26:11.968Z,79.02
2022-09-28T00:29:03.791Z,78.99
2022-09-28T00:32:03.704Z,77.76
2022-09-28T00:34:54.745Z,77.86
2022-09-28T00:37:44.899Z,78.00
2022-09-28T00:40:35.274Z,77.18
2022-09-28T00:43:26.886Z,76.57
2022-09-28T00:46:24.308Z,77.27
2022-09-28T00:49:18.745Z,76.87
2022-09-28T00:52:12.555Z,76.79
2022-09-28T00:55:04.099Z,76.56
2022-09-28T00:57:59.610Z,76.57
2022-09-28T01:00:50.968Z,76.28
2022-09-28T01:03:46.689Z,75.61
2022-09-28T01:06:38.608Z,75.71
2022-09-28T01:09:30.305Z,76.26
2022-09-28T01:12:20.922Z,75.40
2022-09-28T01:15:13.100Z,75.52
2022-09-28T01:18:15.709Z,75.57
2022-09-28T01:21:19.186Z,76.13
2022-09-28T01:24:14.761Z,74.87
2022-09-28T01:27:14.925Z,75.17
2022-09-28T01:30:20.522Z,74.43
2022-09-28T01:33:15.306Z,74.34
2022-09-28T01:36:13.580Z,75.00
2022-09-28T01:39:12.163Z,74.61
2022-09-28T01:42:08.147Z,74.16
2022-09-28T01:45:02.991Z,74.07
2022-09-28T01:47:54.543Z,74.79
2022-09-28T01:50:49.382Z,74.53
2022-09-28T01:53:46.723Z,73.66
2022-09-28T01:56:52.469Z,73.76
2022-09-28T01:59:48.838Z,72.77
2022-09-28T02:02:52.531Z,72.08
2022-09-28T02:06:02.258Z,70.41
2022-09-28T02:08:56.724Z,69.67
2022-09-28T02:12:02.441Z,68.46
2022-09-28T02:14:57.458Z,67.72
2022-09-28T02:17:48.365Z,67.29
2022-09-28T02:20:43.552Z,66.48
2022-09-28T02:23:37.644Z,66.46
2022-09-28T02:26:33.991Z,66.77
2022-09-28T02:29:25.050Z,66.50
2022-09-28T02:32:18.129Z,66.67
2022-09-28T02:35:19.318Z,67.00
2022-09-28T02:38:12.900Z,65.99
2022-09-28T02:41:24.356Z,65.06
2022-09-28T02:44:36.551Z,64.60
2022-09-28T02:47:30.044Z,65.32
2022-09-28T02:50:50.524Z,65.47
2022-09-28T02:54:18.551Z,63.92
2022-09-28T02:57:29.189Z,63.44
2022-09-28T03:00:24.661Z,63.06
2022-09-28T03:03:41.185Z,63.18
2022-09-28T03:06:38.982Z,61.76
2022-09-28T03:09:41.194Z,62.11
2022-09-28T03:12:32.853Z,61.82
2022-09-28T03:15:29.818Z,62.28
2022-09-28T03:18:20.645Z,61.81
2022-09-28T03:21:15.281Z,61.25
2022-09-28T03:24:07.916Z,60.72
2022-09-28T03:26:58.439Z,60.31
2022-09-28T03:29:49.326Z,59.69
2022-09-28T03:32:40.056Z,59.18
2022-09-28T03:35:30.764Z,59.66
2022-09-28T03:38:22.452Z,59.56
2022-09-28T03:41:15.795Z,60.63
2022-09-28T03:44:06.472Z,59.55
2022-09-28T03:46:56.570Z,59.14
2022-09-28T03:49:47.599Z,59.43
2022-09-28T03:52:37.729Z,59.12
2022-09-28T03:55:33.017Z,57.71
2022-09-28T03:58:26.233Z,60.07
2022-09-28T04:01:20.659Z,60.90
2022-09-28T04:04:15.901Z,60.21
2022-09-28T04:07:06.427Z,60.19
2022-09-28T04:09:57.155Z,59.00
2022-09-28T04:12:48.228Z,58.65
2022-09-28T04:15:40.004Z,58.30
2022-09-28T04:18:40.746Z,58.38
2022-09-28T04:21:50.088Z,57.44
2022-09-28T04:24:41.627Z,58.16
2022-09-28T04:27:50.523Z,57.91
2022-09-28T04:30:50.429Z,56.90
2022-09-28T04:33:40.716Z,57.18
2022-09-28T04:36:31.415Z,57.72
2022-09-28T04:39:25.534Z,57.02
2022-09-28T04:42:19.832Z,57.61
2022-09-28T04:45:13.358Z,57.59
2022-09-28T04:48:09.539Z,58.19
2022-09-28T04:51:25.303Z,57.14
2022-09-28T04:54:16.000Z,57.32
2022-09-28T04:57:07.560Z,56.81
2022-09-28T04:59:58.164Z,57.28
2022-09-28T05:02:49.066Z,57.61
2022-09-28T05:05:59.151Z,56.44
2022-09-28T05:09:08.815Z,57.59
2022-09-28T05:11:59.309Z,56.99
2022-09-28T05:14:51.858Z,57.56
2022-09-28T05:17:42.204Z,57.84
2022-09-28T05:20:45.205Z,57.31
2022-09-28T05:23:35.180Z,57.05
2022-09-28T05:26:26.775Z,57.61
2022-09-28T05:29:17.883Z,57.39
2022-09-28T05:32:08.754Z,58.09
2022-09-28T05:35:07.823Z,57.76
2022-09-28T05:38:07.220Z,57.73
2022-09-28T05:41:03.145Z,57.56
2022-09-28T05:43:56.467Z,56.81
2022-09-28T05:46:46.370Z,56.41
2022-09-28T05:49:37.622Z,55.99
2022-09-28T05:52:30.803Z,56.12
2022-09-28T05:55:22.930Z,55.74
2022-09-28T05:58:12.687Z,55.80
2022-09-28T06:01:03.006Z,55.49
2022-09-28T06:03:54.055Z,55.44
2022-09-28T06:06:45.275Z,55.28
2022-09-28T06:09:35.798Z,54.68
2022-09-28T06:12:38.084Z,54.98
2022-09-28T06:15:38.565Z,55.41
2022-09-28T06:18:28.622Z,55.69
2022-09-28T06:21:43.942Z,56.53
2022-09-28T06:24:34.439Z,56.32
2022-09-28T06:27:26.802Z,56.69
2022-09-28T06:30:17.878Z,57.60
2022-09-28T06:33:09.877Z,57.93
2022-09-28T06:36:02.277Z,58.29
2022-09-28T06:38:52.688Z,57.78
2022-09-28T06:41:43.816Z,57.99
2022-09-28T06:44:37.284Z,58.91
2022-09-28T06:47:45.535Z,59.61
2022-09-28T06:50:53.574Z,60.92
2022-09-28T06:53:50.987Z,61.78
2022-09-28T06:56:55.968Z,62.24
2022-09-28T06:59:46.907Z,62.28
2022-09-28T07:02:38.162Z,62.47
2022-09-28T07:05:49.952Z,63.27
2022-09-28T07:09:25.295Z,62.66
2022-09-28T07:12:37.538Z,62.93
2022-09-28T07:15:45.033Z,62.68
2022-09-28T07:18:40.558Z,62.19
2022-09-28T07:21:33.033Z,62.84
2022-09-28T07:24:25.204Z,62.85
2022-09-28T07:27:44.230Z,62.98
2022-09-28T07:30:39.581Z,62.59
2022-09-28T07:33:40.425Z,62.80
2022-09-28T07:36:58.580Z,62.58
2022-09-28T07:40:07.521Z,62.80
2022-09-28T07:43:07.135Z,64.20
2022-09-28T07:45:58.157Z,64.23
2022-09-28T07:48:48.563Z,64.35
2022-09-28T07:51:57.870Z,64.86
2022-09-28T07:54:53.511Z,64.56
2022-09-28T07:58:06.632Z,64.78
2022-09-28T08:01:33.401Z,65.16
2022-09-28T08:04:25.221Z,65.60
2022-09-28T08:07:23.631Z,65.50
2022-09-28T08:10:24.112Z,64.65
2022-09-28T08:13:40.941Z,64.51
2022-09-28T08:16:57.579Z,64.63
2022-09-28T08:20:30.145Z,64.13
2022-09-28T08:23:24.571Z,64.17
2022-09-28T08:26:15.876Z,64.63
2022-09-28T08:29:08.385Z,64.38
2022-09-28T08:32:22.363Z,64.79
2022-09-28T08:35:40.191Z,64.75
2022-09-28T08:38:36.561Z,64.97
2022-09-28T08:41:51.252Z,65.34
2022-09-28T08:44:50.592Z,66.11
2022-09-28T08:48:26.079Z,65.76
2022-09-28T08:51:51.930Z,66.33
2022-09-28T08:54:58.302Z,66.84
2022-09-28T08:58:10.874Z,67.32
2022-09-28T09:01:02.816Z,67.26
2022-09-28T09:03:53.818Z,67.15
2022-09-28T09:07:09.073Z,67.53
2022-09-28T09:10:09.515Z,66.65
2022-09-28T09:13:23.218Z,67.06
2022-09-28T09:16:42.605Z,66.77
2022-09-28T09:20:01.781Z,66.60
2022-09-28T09:23:22.217Z,66.53
2022-09-28T09:26:23.697Z,66.13
2022-09-28T09:29:34.981Z,66.75
2022-09-28T09:32:56.377Z,66.38
2022-09-28T09:36:09.140Z,66.74
2022-09-28T09:39:53.029Z,66.94
2022-09-28T09:43:52.127Z,67.18
2022-09-28T09:47:09.431Z,66.30
2022-09-28T09:50:52.860Z,66.51
2022-09-28T09:53:49.704Z,67.39
2022-09-28T09:56:59.444Z,68.19
2022-09-28T10:00:21.948Z,69.00
2022-09-28T10:03:30.911Z,69.78
2022-09-28T10:06:37.825Z,68.83
2022-09-28T10:09:48.775Z,68.97
2022-09-28T10:12:55.333Z,68.96
2022-09-28T10:15:48.983Z,69.81
2022-09-28T10:18:47.043Z,69.60
2022-09-28T10:22:09.082Z,70.67
2022-09-28T10:25:01.850Z,70.13
2022-09-28T10:27:54.053Z,70.27
2022-09-28T10:30:46.267Z,70.62
2022-09-28T10:33:37.852Z,71.00
2022-09-28T10:36:31.482Z,71.88
2022-09-28T10:39:37.980Z,72.66
2022-09-28T10:42:33.355Z,72.56
2022-09-28T10:45:26.064Z,73.16
2022-09-28T10:48:24.927Z,73.39
2022-09-28T10:51:14.627Z,72.09
2022-09-28T10:54:07.828Z,72.78
2022-09-28T10:57:31.110Z,71.04
2022-09-28T11:00:52.431Z,70.04
2022-09-28T11:04:01.239Z,68.77
2022-09-28T11:06:52.411Z,66.78
2022-09-28T11:09:47.706Z,66.89
2022-09-28T11:12:49.480Z,67.73
2022-09-28T11:15:44.411Z,68.15
2022-09-28T11:18:44.742Z,67.13
2022-09-28T11:21:47.593Z,67.09
2022-09-28T11:24:38.830Z,67.44
2022-09-28T11:27:29.760Z,67.79
2022-09-28T11:30:34.982Z,68.97
2022-09-28T11:33:49.684Z,68.90
2022-09-28T11:37:28.588Z,69.15
2022-09-28T11:40:35.634Z,70.56
2022-09-28T11:43:52.186Z,70.52
2022-09-28T11:47:07.094Z,71.06
2022-09-28T11:50:20.050Z,71.82
2022-09-28T11:53:43.148Z,72.02
2022-09-28T11:56:41.440Z,72.41
2022-09-28T11:59:50.039Z,72.80
2022-09-28T12:03:06.642Z,73.66
2022-09-28T12:06:03.909Z,74.56
2022-09-28T12:09:02.577Z,74.58
2022-09-28T12:12:36.281Z,74.49
2022-09-28T12:15:59.213Z,75.16
2022-09-28T12:18:53.692Z,74.87
2022-09-28T12:21:52.742Z,74.44
2022-09-28T12:24:51.011Z,74.02
2022-09-28T12:28:14.234Z,73.84
2022-09-28T12:31:19.806Z,73.92
2022-09-28T12:34:16.794Z,73.85
2022-09-28T12:37:43.757Z,73.61
2022-09-28T12:40:42.304Z,74.04
2022-09-28T12:43:41.985Z,73.87
2022-09-28T12:46:49.145Z,74.14
2022-09-28T12:53:08.733Z,73.96
2022-09-28T12:56:30.979Z,74.16
2022-09-28T12:59:27.444Z,74.42
2022-09-28T13:02:42.998Z,74.25
2022-09-28T13:06:18.546Z,74.42
2022-09-28T13:09:29.375Z,74.48
2022-09-28T13:12:28.791Z,74.38
2022-09-28T13:15:38.606Z,74.61
2022-09-28T13:18:36.817Z,74.45
2022-09-28T13:21:40.557Z,74.54
2022-09-28T13:24:37.187Z,74.47
2022-09-28T13:27:46.776Z,75.11
2022-09-28T13:30:41.344Z,74.68
2022-09-28T13:33:40.147Z,74.35
2022-09-28T13:36:31.748Z,74.07
2022-09-28T13:39:47.814Z,74.43
2022-09-28T13:42:52.498Z,74.83
2022-09-28T13:45:55.160Z,75.01
2022-09-28T13:49:13.955Z,75.00
2022-09-28T13:53:05.549Z,74.66
2022-09-28T13:56:29.837Z,74.63
2022-09-28T13:59:31.581Z,75.41
2022-09-28T14:02:35.746Z,74.28
2022-09-28T14:05:28.800Z,74.69
2022-09-28T14:08:44.852Z,74.31
2022-09-28T14:11:40.814Z,74.16
2022-09-28T14:14:49.570Z,74.59
2022-09-28T14:18:25.238Z,74.26
2022-09-28T14:21:33.762Z,74.30
2022-09-28T14:24:46.432Z,74.30
2022-09-28T14:28:12.972Z,74.41
2022-09-28T14:31:16.891Z,74.51
2022-09-28T14:34:29.504Z,74.34
2022-09-28T14:37:59.012Z,74.30
2022-09-28T14:41:11.769Z,75.08
2022-09-28T14:44:06.762Z,74.62
2022-09-28T14:47:40.446Z,74.63
2022-09-28T14:50:31.461Z,74.24
2022-09-28T14:53:26.242Z,74.44
2022-09-28T14:56:16.611Z,74.30
2022-09-28T14:59:08.716Z,74.61
2022-09-28T15:02:07.854Z,74.83
2022-09-28T15:05:26.682Z,74.87
2022-09-28T15:08:24.186Z,74.53
2022-09-28T15:11:29.972Z,74.69
2022-09-28T15:14:20.471Z,74.42
2022-09-28T15:17:16.508Z,74.64
2022-09-28T15:20:26.052Z,74.45
2022-09-28T15:23:38.896Z,74.62
2022-09-28T15:26:35.007Z,74.73
2022-09-28T15:29:28.630Z,74.61
2022-09-28T15:32:29.446Z,75.01
2022-09-28T15:35:27.674Z,74.61
2022-09-28T15:38:19.019Z,74.54
2022-09-28T15:41:12.370Z,75.11
2022-09-28T15:44:21.607Z,75.80
2022-09-28T15:47:26.826Z,75.76
2022-09-28T15:50:47.214Z,75.64
2022-09-28T15:53:37.929Z,75.59
2022-09-28T15:56:28.768Z,75.78
2022-09-28T15:59:18.971Z,75.78
2022-09-28T16:02:27.487Z,75.35
2022-09-28T16:05:38.184Z,75.04
2022-09-28T16:08:49.915Z,75.50
2022-09-28T16:11:42.073Z,75.03
2022-09-28T16:14:35.882Z,75.38
2022-09-28T16:17:36.235Z,75.40
2022-09-28T16:20:30.800Z,75.50
2022-09-28T16:23:32.341Z,74.91
2022-09-28T16:26:37.149Z,75.18
2022-09-28T16:29:29.741Z,74.89
2022-09-28T16:32:29.304Z,75.69
2022-09-28T16:35:30.470Z,75.93
2022-09-28T16:38:21.441Z,75.27
2022-09-28T16:41:12.143Z,75.33
2022-09-28T16:44:03.732Z,75.67
2022-09-28T16:46:57.369Z,76.19
2022-09-28T16:49:49.352Z,76.04
2022-09-28T16:53:00.048Z,75.78
2022-09-28T16:55:54.965Z,76.02
2022-09-28T16:58:50.764Z,76.00
2022-09-28T17:01:44.950Z,76.48
2022-09-28T17:04:35.057Z,76.52
2022-09-28T17:07:25.797Z,76.44
2022-09-28T17:11:09.825Z,76.68
2022-09-28T17:14:00.266Z,77.02
2022-09-28T17:17:08.153Z,77.38
2022-09-28T17:20:01.221Z,76.78
2022-09-28T17:22:55.056Z,77.47
2022-09-28T17:25:46.878Z,77.90
2022-09-28T17:28:38.472Z,77.48
2022-09-28T17:31:32.331Z,77.69
2022-09-28T17:34:22.787Z,77.41
2022-09-28T17:37:16.723Z,77.54
2022-09-28T17:40:21.703Z,77.52
2022-09-28T17:43:11.962Z,76.90
2022-09-28T17:46:02.504Z,76.97
2022-09-28T17:48:55.551Z,77.70
2022-09-28T17:51:45.691Z,78.03
2022-09-28T17:54:36.135Z,78.14
2022-09-28T17:57:28.163Z,77.62
2022-09-28T18:00:19.112Z,77.54
2022-09-28T18:03:18.652Z,77.62
2022-09-28T18:06:16.099Z,77.91
2022-09-28T18:09:07.143Z,77.97
2022-09-28T18:12:08.832Z,78.15
2022-09-28T18:15:01.824Z,77.80
2022-09-28T18:17:53.073Z,78.38
2022-09-28T18:20:43.514Z,78.38
2022-09-28T18:23:38.254Z,78.15
2022-09-28T18:26:28.095Z,78.05
2022-09-28T18:29:33.489Z,78.33
2022-09-28T18:32:25.045Z,78.33
2022-09-28T18:35:15.902Z,78.70
2022-09-28T18:38:10.689Z,78.68
2022-09-28T18:41:11.827Z,78.55
2022-09-28T18:44:07.307Z,79.15
2022-09-28T18:47:01.547Z,79.05
2022-09-28T18:49:55.115Z,79.40
2022-09-28T18:52:46.625Z,79.33
2022-09-28T18:55:38.067Z,79.88
2022-09-28T18:58:31.732Z,79.59
2022-09-28T19:01:31.726Z,79.48
2022-09-28T19:04:24.606Z,79.85
2022-09-28T19:07:15.234Z,80.39
2022-09-28T19:10:06.846Z,80.13
2022-09-28T19:12:57.181Z,80.66
2022-09-28T19:15:47.382Z,80.27
2022-09-28T19:18:41.537Z,80.65
2022-09-28T19:21:32.093Z,80.81
2022-09-28T19:24:22.612Z,80.63
2022-09-28T19:27:15.852Z,80.68
2022-09-28T19:30:06.418Z,80.64
2022-09-28T19:32:57.764Z,80.17
2022-09-28T19:35:57.804Z,80.87
2022-09-28T19:38:48.470Z,81.07
2022-09-28T19:41:47.358Z,80.67
2022-09-28T19:44:38.678Z,80.58
2022-09-28T19:47:29.614Z,80.98
2022-09-28T19:50:19.868Z,80.73
2022-09-28T19:53:10.549Z,81.48
2022-09-28T19:56:09.886Z,81.13
2022-09-28T19:59:03.468Z,80.97
2022-09-28T20:01:57.550Z,80.67
2022-09-28T20:04:51.128Z,80.43
2022-09-28T20:07:42.623Z,80.37
2022-09-28T20:10:33.109Z,80.81
2022-09-28T20:13:24.067Z,80.28
2022-09-28T20:16:19.390Z,80.64
2022-09-28T20:19:13.238Z,80.33
2022-09-28T20:22:04.780Z,80.27
2022-09-28T20:24:55.698Z,80.63
2022-09-28T20:27:45.590Z,80.24
2022-09-28T20:30:39.823Z,80.18
2022-09-28T20:33:29.921Z,80.06
2022-09-28T20:36:22.931Z,81.24
2022-09-28T20:39:24.827Z,80.24
2022-09-28T20:42:17.093Z,80.38
2022-09-28T20:45:07.862Z,79.92
2022-09-28T20:47:58.133Z,80.29
2022-09-28T20:50:48.342Z,80.17
2022-09-28T20:53:40.187Z,80.34
2022-09-28T20:56:40.050Z,80.51
2022-09-28T20:59:32.658Z,80.02
2022-09-28T21:02:23.738Z,79.93
2022-09-28T21:06:12.269Z,80.31
2022-09-28T21:09:03.404Z,80.40
2022-09-28T21:11:54.245Z,80.86
2022-09-28T21:14:44.853Z,80.44
2022-09-28T21:17:35.453Z,81.38
2022-09-28T21:20:25.781Z,81.17
2022-09-28T21:23:18.259Z,81.19
2022-09-28T21:26:20.015Z,80.94
2022-09-28T21:29:14.499Z,81.42
2022-09-28T21:32:05.619Z,81.74
2022-09-28T21:34:59.680Z,81.90
2022-09-28T21:37:50.068Z,81.71
2022-09-28T21:40:40.561Z,81.39
2022-09-28T21:43:33.028Z,81.59
2022-09-28T21:46:23.589Z,81.47
2022-09-28T21:49:15.583Z,80.82
2022-09-28T21:52:05.606Z,80.75
2022-09-28T21:54:59.030Z,80.92
2022-09-28T21:57:51.996Z,80.70
2022-09-28T22:00:42.086Z,80.37
2022-09-28T22:03:33.534Z,80.66
2022-09-28T22:06:26.239Z,80.55
2022-09-28T22:09:16.959Z,80.74
2022-09-28T22:12:07.335Z,81.42
2022-09-28T22:14:58.355Z,81.08
2022-09-28T22:17:51.578Z,81.27
2022-09-28T22:20:43.220Z,81.25
2022-09-28T22:23:33.908Z,81.42
2022-09-28T22:26:29.083Z,82.08
2022-09-28T22:29:19.076Z,82.16
2022-09-28T22:32:11.714Z,82.77
2022-09-28T22:35:03.180Z,82.27
2022-09-28T22:37:53.654Z,82.24
2022-09-28T22:40:59.647Z,82.21
2022-09-28T22:43:51.568Z,82.80
2022-09-28T22:46:42.754Z,83.04
2022-09-28T22:49:33.185Z,83.38
2022-09-28T22:52:24.141Z,83.46
2022-09-28T22:55:15.316Z,83.93
2022-09-28T22:58:05.196Z,83.44
2022-09-28T23:00:58.396Z,84.08
2022-09-28T23:03:49.338Z,83.52
2022-09-28T23:06:42.630Z,83.43
2022-09-28T23:09:33.221Z,83.46
2022-09-28T23:12:23.665Z,83.56
2022-09-28T23:15:15.061Z,83.41
2022-09-28T23:18:05.328Z,83.75
2022-09-28T23:20:57.599Z,83.62
2022-09-28T23:23:49.230Z,83.17
2022-09-28T23:26:39.341Z,83.20
2022-09-28T23:29:30.117Z,83.07
2022-09-28T23:32:20.860Z,83.58
2022-09-28T23:35:11.479Z,83.39
2022-09-28T23:38:02.323Z,83.00
2022-09-28T23:40:52.606Z,83.27
2022-09-28T23:43:42.369Z,83.06
2022-09-28T23:46:33.152Z,83.54
2022-09-28T23:49:24.134Z,83.01
2022-09-28T23:52:15.053Z,83.71
2022-09-28T23:55:06.130Z,82.63
2022-09-28T23:57:57.966Z,83.11
